createdAt,value
2023-11-08T00:00:01.922Z,11.01
2023-11-08T00:02:28.458Z,11.01
2023-11-08T00:04:55.031Z,11.01
2023-11-08T00:07:21.554Z,11.02
2023-11-08T00:09:48.225Z,11.03
2023-11-08T00:12:17.953Z,11.02
2023-11-08T00:14:45.034Z,11.03
2023-11-08T00:17:11.649Z,11.02
2023-11-08T00:19:38.183Z,11.02
2023-11-08T00:22:04.866Z,11.01
2023-11-08T00:24:31.485Z,11.02
2023-11-08T00:26:58.024Z,11.01
2023-11-08T00:29:24.745Z,11.02
2023-11-08T00:31:54.911Z,11.02
2023-11-08T00:34:21.620Z,11.02
2023-11-08T00:36:49.780Z,11.03
2023-11-08T00:39:19.490Z,11.04
2023-11-08T00:41:46.839Z,11.05
2023-11-08T00:44:13.984Z,11.05
2023-11-08T00:46:40.708Z,11.05
2023-11-08T00:49:07.688Z,11.06
2023-11-08T00:51:34.460Z,11.06
2023-11-08T00:54:01.827Z,11.06
2023-11-08T00:56:28.616Z,11.07
2023-11-08T00:58:55.357Z,11.07
2023-11-08T01:01:23.542Z,11.07
2023-11-08T01:03:55.914Z,11.08
2023-11-08T01:06:24.725Z,11.11
2023-11-08T01:08:51.421Z,11.13
2023-11-08T01:11:18.300Z,11.13
2023-11-08T01:13:47.170Z,11.14
2023-11-08T01:16:15.127Z,11.14
2023-11-08T01:18:42.416Z,11.15
2023-11-08T01:21:09.139Z,11.15
2023-11-08T01:23:37.391Z,11.16
2023-11-08T01:26:04.550Z,11.16
2023-11-08T01:28:31.267Z,11.15
2023-11-08T01:30:58.206Z,11.14
2023-11-08T01:33:24.799Z,11.12
2023-11-08T01:35:51.437Z,11.08
2023-11-08T01:38:17.978Z,11.05
2023-11-08T01:40:44.640Z,11.01
2023-11-08T01:43:27.548Z,10.93
2023-11-08T01:46:05.196Z,10.92
2023-11-08T01:48:33.301Z,10.89
2023-11-08T01:51:00.697Z,10.85
2023-11-08T01:53:29.287Z,10.81
2023-11-08T01:55:57.406Z,10.76
2023-11-08T01:58:24.472Z,10.76
2023-11-08T02:00:52.766Z,10.73
2023-11-08T02:03:19.462Z,10.71
2023-11-08T02:05:46.148Z,10.69
2023-11-08T02:08:12.904Z,10.71
2023-11-08T02:10:40.558Z,10.69
2023-11-08T02:13:08.329Z,10.68
2023-11-08T02:15:43.280Z,10.65
2023-11-08T02:18:11.919Z,10.68
2023-11-08T02:20:38.961Z,10.69
2023-11-08T02:23:05.629Z,10.69
2023-11-08T02:25:32.452Z,10.71
2023-11-08T02:27:59.440Z,10.72
2023-11-08T02:30:26.297Z,10.73
2023-11-08T02:32:54.108Z,10.74
2023-11-08T02:35:20.765Z,10.74
2023-11-08T02:37:49.237Z,10.74
2023-11-08T02:40:15.914Z,10.74
2023-11-08T02:42:49.369Z,10.73
2023-11-08T02:45:15.888Z,10.75
2023-11-08T02:47:42.549Z,10.74
2023-11-08T02:50:09.734Z,10.75
2023-11-08T02:52:36.521Z,10.75
2023-11-08T02:55:04.381Z,10.74
2023-11-08T02:57:31.594Z,10.73
2023-11-08T02:59:58.625Z,10.75
2023-11-08T03:02:25.189Z,10.74
2023-11-08T03:04:52.197Z,10.76
2023-11-08T03:07:20.395Z,10.76
2023-11-08T03:09:47.041Z,10.77
2023-11-08T03:12:13.674Z,10.78
2023-11-08T03:14:40.667Z,10.79
2023-11-08T03:17:07.294Z,10.80
2023-11-08T03:19:34.102Z,10.80
2023-11-08T03:22:02.061Z,10.80
2023-11-08T03:24:28.801Z,10.81
2023-11-08T03:26:55.374Z,10.80
2023-11-08T03:29:21.969Z,10.82
2023-11-08T03:31:48.536Z,10.81
2023-11-08T03:34:15.232Z,10.84
2023-11-08T03:36:43.736Z,10.86
2023-11-08T03:39:10.886Z,10.86
2023-11-08T03:41:37.600Z,10.86
2023-11-08T03:44:05.121Z,10.86
2023-11-08T03:46:31.848Z,10.87
2023-11-08T03:48:59.750Z,10.86
2023-11-08T03:51:29.957Z,10.82
2023-11-08T03:53:56.505Z,10.82
2023-11-08T03:56:23.795Z,10.81
2023-11-08T03:58:50.826Z,10.80
2023-11-08T04:01:17.497Z,10.78
2023-11-08T04:03:44.282Z,10.77
2023-11-08T04:06:11.564Z,10.76
2023-11-08T04:08:38.126Z,10.74
2023-11-08T04:11:04.708Z,10.75
2023-11-08T04:13:31.265Z,10.75
2023-11-08T04:15:57.757Z,10.75
2023-11-08T04:18:24.689Z,10.75
2023-11-08T04:20:51.161Z,10.76
2023-11-08T04:23:17.650Z,10.76
2023-11-08T04:25:45.928Z,10.78
2023-11-08T04:28:12.543Z,10.78
2023-11-08T04:30:39.196Z,10.80
2023-11-08T04:33:05.750Z,10.80
2023-11-08T04:35:32.304Z,10.80
2023-11-08T04:38:01.463Z,10.80
2023-11-08T04:40:29.200Z,10.80
2023-11-08T04:42:55.785Z,10.79
2023-11-08T04:45:22.627Z,10.80
2023-11-08T04:47:49.380Z,10.79
2023-11-08T04:50:16.044Z,10.80
2023-11-08T04:52:42.591Z,10.78
2023-11-08T04:55:09.239Z,10.78
2023-11-08T04:57:35.827Z,10.75
2023-11-08T05:00:03.380Z,10.73
2023-11-08T05:02:29.957Z,10.72
2023-11-08T05:04:56.939Z,10.71
2023-11-08T05:07:23.995Z,10.68
2023-11-08T05:09:51.134Z,10.66
2023-11-08T05:12:18.733Z,10.67
2023-11-08T05:14:45.412Z,10.67
2023-11-08T05:17:12.202Z,10.66
2023-11-08T05:19:38.786Z,10.66
2023-11-08T05:22:05.607Z,10.64
2023-11-08T05:24:32.307Z,10.65
2023-11-08T05:26:59.748Z,10.64
2023-11-08T05:29:26.472Z,10.67
2023-11-08T05:31:54.377Z,10.66
2023-11-08T05:34:21.591Z,10.67
2023-11-08T05:36:48.452Z,10.67
2023-11-08T05:39:25.847Z,10.68
2023-11-08T05:41:53.566Z,10.69
2023-11-08T05:44:20.902Z,10.69
2023-11-08T05:46:47.448Z,10.72
2023-11-08T05:49:14.003Z,10.72
2023-11-08T05:51:40.903Z,10.72
2023-11-08T05:54:07.543Z,10.73
2023-11-08T05:56:34.161Z,10.73
2023-11-08T05:59:00.706Z,10.73
2023-11-08T06:01:27.292Z,10.74
2023-11-08T06:03:53.942Z,10.75
2023-11-08T06:06:21.222Z,10.76
2023-11-08T06:08:50.065Z,10.77
2023-11-08T06:11:17.384Z,10.77
2023-11-08T06:13:44.593Z,10.79
2023-11-08T06:16:12.184Z,10.79
2023-11-08T06:18:40.532Z,10.78
2023-11-08T06:21:07.180Z,10.79
2023-11-08T06:23:33.697Z,10.79
2023-11-08T06:26:00.281Z,10.80
2023-11-08T06:28:26.888Z,10.79
2023-11-08T06:30:55.018Z,10.79
2023-11-08T06:33:21.977Z,10.80
2023-11-08T06:35:48.758Z,10.80
2023-11-08T06:38:15.318Z,10.81
2023-11-08T06:40:41.807Z,10.82
2023-11-08T06:43:08.544Z,10.84
2023-11-08T06:45:35.462Z,10.85
2023-11-08T06:48:03.035Z,10.86
2023-11-08T06:50:32.187Z,10.85
2023-11-08T06:52:58.708Z,10.87
2023-11-08T06:55:32.460Z,10.88
2023-11-08T06:58:06.274Z,10.88
2023-11-08T07:00:34.989Z,10.90
2023-11-08T07:03:01.735Z,10.89
2023-11-08T07:05:33.272Z,10.90
2023-11-08T07:08:05.069Z,10.90
2023-11-08T07:10:31.669Z,10.91
2023-11-08T07:12:58.267Z,10.92
2023-11-08T07:15:25.705Z,10.92
2023-11-08T07:17:52.665Z,10.94
2023-11-08T07:20:19.374Z,10.95
2023-11-08T07:22:45.931Z,10.95
2023-11-08T07:25:12.645Z,10.96
2023-11-08T07:27:39.411Z,10.97
2023-11-08T07:30:11.760Z,10.97
2023-11-08T07:32:40.065Z,10.98
2023-11-08T07:35:07.657Z,10.99
2023-11-08T07:37:34.696Z,10.98
2023-11-08T07:40:01.254Z,10.99
2023-11-08T07:42:28.637Z,10.98
2023-11-08T07:44:55.910Z,10.97
2023-11-08T07:47:22.451Z,10.99
2023-11-08T07:49:49.058Z,10.97
2023-11-08T07:52:15.617Z,10.97
2023-11-08T07:54:42.290Z,10.97
2023-11-08T07:57:08.808Z,10.98
2023-11-08T07:59:35.696Z,10.99
2023-11-08T08:02:02.222Z,11.01
2023-11-08T08:04:28.821Z,11.04
2023-11-08T08:06:55.852Z,11.05
2023-11-08T08:09:23.289Z,11.10
2023-11-08T08:11:50.151Z,11.12
2023-11-08T08:14:16.843Z,11.14
2023-11-08T08:16:45.202Z,11.15
2023-11-08T08:19:11.853Z,11.15
2023-11-08T08:21:38.935Z,11.16
2023-11-08T08:24:07.714Z,11.17
2023-11-08T08:26:35.926Z,11.16
2023-11-08T08:29:03.105Z,11.17
2023-11-08T08:31:29.766Z,11.17
2023-11-08T08:33:58.314Z,11.19
2023-11-08T08:36:25.081Z,11.19
2023-11-08T08:38:51.712Z,11.20
2023-11-08T08:41:19.380Z,11.19
2023-11-08T08:43:45.850Z,11.19
2023-11-08T08:46:12.349Z,11.20
2023-11-08T08:48:38.988Z,11.19
2023-11-08T08:51:05.460Z,11.20
2023-11-08T08:53:32.322Z,11.22
2023-11-08T08:55:58.834Z,11.25
2023-11-08T08:58:25.442Z,11.27
2023-11-08T09:00:52.028Z,11.29
2023-11-08T09:03:18.728Z,11.32
2023-11-08T09:05:45.471Z,11.33
2023-11-08T09:08:12.055Z,11.36
2023-11-08T09:10:38.663Z,11.38
2023-11-08T09:13:05.446Z,11.40
2023-11-08T09:15:33.375Z,11.40
2023-11-08T09:18:00.363Z,11.41
2023-11-08T09:20:27.387Z,11.41
2023-11-08T09:22:53.992Z,11.44
2023-11-08T09:25:20.610Z,11.45
2023-11-08T09:27:47.351Z,11.45
2023-11-08T09:30:14.411Z,11.48
2023-11-08T09:32:41.120Z,11.50
2023-11-08T09:35:08.394Z,11.53
2023-11-08T09:37:35.162Z,11.55
2023-11-08T09:40:01.876Z,11.59
2023-11-08T09:42:31.257Z,11.60
2023-11-08T09:45:01.764Z,11.63
2023-11-08T09:47:28.683Z,11.66
2023-11-08T09:49:57.201Z,11.69
2023-11-08T09:52:24.207Z,11.72
2023-11-08T09:54:51.188Z,11.77
2023-11-08T09:57:18.912Z,11.81
2023-11-08T09:59:46.045Z,11.86
2023-11-08T10:02:13.417Z,11.91
2023-11-08T10:04:45.993Z,11.95
2023-11-08T10:07:14.069Z,12.01
2023-11-08T10:09:41.001Z,12.03
2023-11-08T10:12:09.707Z,12.04
2023-11-08T10:14:41.945Z,12.04
2023-11-08T10:17:31.156Z,12.08
2023-11-08T10:19:58.592Z,12.11
2023-11-08T10:22:26.597Z,12.15
2023-11-08T10:24:56.246Z,12.17
2023-11-08T10:27:23.907Z,12.20
2023-11-08T10:29:51.797Z,12.23
2023-11-08T10:32:24.685Z,12.26
2023-11-08T10:34:54.485Z,12.32
2023-11-08T10:37:25.193Z,12.39
2023-11-08T10:39:58.369Z,12.47
2023-11-08T10:42:28.125Z,12.57
2023-11-08T10:45:08.338Z,12.62
2023-11-08T10:47:38.207Z,12.71
2023-11-08T10:50:07.342Z,12.79
2023-11-08T10:52:40.612Z,12.82
2023-11-08T10:55:07.684Z,12.89
2023-11-08T10:57:35.523Z,12.93
2023-11-08T11:00:05.461Z,12.97
2023-11-08T11:02:41.356Z,13.01
2023-11-08T11:05:11.662Z,13.08
2023-11-08T11:07:42.918Z,13.16
2023-11-08T11:10:10.731Z,13.29
2023-11-08T11:13:05.631Z,13.42
2023-11-08T11:16:10.404Z,13.62
2023-11-08T11:18:55.229Z,13.85
2023-11-08T11:21:40.880Z,14.10
2023-11-08T11:24:49.638Z,14.34
2023-11-08T11:27:34.707Z,14.55
2023-11-08T11:30:19.423Z,14.68
2023-11-08T11:32:49.455Z,14.88
2023-11-08T11:35:20.487Z,15.03
2023-11-08T11:38:08.919Z,15.17
2023-11-08T11:40:49.508Z,15.37
2023-11-08T11:43:31.206Z,15.51
2023-11-08T11:45:59.356Z,15.64
2023-11-08T11:48:29.673Z,15.66
2023-11-08T11:50:56.374Z,15.64
2023-11-08T11:53:24.979Z,15.58
2023-11-08T11:56:09.192Z,15.46
2023-11-08T11:58:36.907Z,15.37
2023-11-08T12:01:07.548Z,15.31
2023-11-08T12:03:35.229Z,15.31
2023-11-08T12:06:02.280Z,15.35
2023-11-08T12:08:29.311Z,15.34
2023-11-08T12:11:15.913Z,15.25
2023-11-08T12:13:48.600Z,15.17
2023-11-08T12:16:16.683Z,15.09
2023-11-08T12:18:45.573Z,15.01
2023-11-08T12:21:12.902Z,14.95
2023-11-08T12:23:39.596Z,14.92
2023-11-08T12:26:06.168Z,14.89
2023-11-08T12:28:32.978Z,14.87
2023-11-08T12:31:11.431Z,14.80
2023-11-08T12:33:38.834Z,14.81
2023-11-08T12:36:06.078Z,14.75
2023-11-08T12:38:36.771Z,14.66
2023-11-08T12:41:08.724Z,14.59
2023-11-08T12:43:58.717Z,14.54
2023-11-08T12:46:37.564Z,14.48
2023-11-08T12:49:21.044Z,14.41
2023-11-08T12:51:48.015Z,14.41
2023-11-08T12:54:16.266Z,14.42
2023-11-08T12:56:43.355Z,14.44
2023-11-08T12:59:11.444Z,14.48
2023-11-08T13:01:39.257Z,14.50
2023-11-08T13:04:06.928Z,14.51
2023-11-08T13:06:35.209Z,14.52
2023-11-08T13:09:02.271Z,14.55
2023-11-08T13:13:55.509Z,14.67
2023-11-08T13:16:22.043Z,14.71
2023-11-08T13:18:49.054Z,14.71
2023-11-08T13:21:15.657Z,14.69
2023-11-08T13:24:01.777Z,14.68
2023-11-08T13:26:29.737Z,14.65
2023-11-08T13:28:56.467Z,14.63
2023-11-08T13:31:23.031Z,14.63
2023-11-08T13:33:50.305Z,14.63
2023-11-08T13:36:17.206Z,14.63
2023-11-08T13:38:43.768Z,14.64
2023-11-08T13:41:10.574Z,14.67
2023-11-08T13:43:37.981Z,14.72
2023-11-08T13:46:05.200Z,14.84
2023-11-08T13:48:32.514Z,14.97
2023-11-08T13:51:01.396Z,15.10
2023-11-08T13:53:28.190Z,15.19
2023-11-08T13:55:54.782Z,15.24
2023-11-08T13:58:29.235Z,15.24
2023-11-08T14:01:06.928Z,15.21
2023-11-08T14:03:34.164Z,15.17
2023-11-08T14:06:00.997Z,15.06
2023-11-08T14:08:27.586Z,14.97
2023-11-08T14:10:54.140Z,14.84
2023-11-08T14:13:20.709Z,14.73
2023-11-08T14:15:47.869Z,14.58
2023-11-08T14:18:16.089Z,14.46
2023-11-08T14:20:42.690Z,14.35
2023-11-08T14:23:09.828Z,14.25
2023-11-08T14:25:38.554Z,14.15
2023-11-08T14:28:05.453Z,14.07
2023-11-08T14:30:32.523Z,14.02
2023-11-08T14:32:59.126Z,13.96
2023-11-08T14:35:26.022Z,13.90
2023-11-08T14:37:53.208Z,13.85
2023-11-08T14:40:20.699Z,13.80
2023-11-08T14:42:47.537Z,13.76
2023-11-08T14:45:14.087Z,13.71
2023-11-08T14:47:40.742Z,13.67
2023-11-08T14:50:07.618Z,13.65
2023-11-08T14:52:34.221Z,13.61
2023-11-08T14:55:01.113Z,13.59
2023-11-08T14:57:27.734Z,13.55
2023-11-08T14:59:54.229Z,13.52
2023-11-08T15:02:20.841Z,13.50
2023-11-08T15:04:47.562Z,13.47
2023-11-08T15:09:40.233Z,13.41
2023-11-08T15:10:02.370Z,13.39
2023-11-08T15:12:29.318Z,13.36
2023-11-08T15:14:56.244Z,13.33
2023-11-08T15:17:22.837Z,13.28
2023-11-08T15:19:51.179Z,13.24
2023-11-08T15:22:18.041Z,13.20
2023-11-08T15:24:50.563Z,13.15
2023-11-08T15:27:18.349Z,13.13
2023-11-08T15:29:44.977Z,13.09
2023-11-08T15:32:11.569Z,13.03
2023-11-08T15:34:38.708Z,12.99
2023-11-08T15:37:05.611Z,12.94
2023-11-08T15:39:32.065Z,12.89
2023-11-08T15:41:58.576Z,12.86
2023-11-08T15:44:28.019Z,12.82
2023-11-08T15:46:55.749Z,12.77
2023-11-08T15:49:23.215Z,12.74
2023-11-08T15:51:50.446Z,12.71
2023-11-08T15:54:17.105Z,12.68
2023-11-08T15:56:44.220Z,12.65
2023-11-08T15:59:11.007Z,12.64
2023-11-08T16:01:37.956Z,12.61
2023-11-08T16:04:06.074Z,12.59
2023-11-08T16:06:32.700Z,12.58
2023-11-08T16:09:00.163Z,12.57
2023-11-08T16:11:26.710Z,12.56
2023-11-08T16:13:53.876Z,12.55
2023-11-08T16:16:20.367Z,12.55
2023-11-08T16:18:50.489Z,12.54
2023-11-08T16:21:18.492Z,12.52
2023-11-08T16:23:47.859Z,12.48
2023-11-08T16:26:14.280Z,12.50
2023-11-08T16:28:41.405Z,12.50
2023-11-08T16:32:30.466Z,12.49
2023-11-08T16:33:57.274Z,12.49
2023-11-08T16:36:26.670Z,12.48
2023-11-08T16:38:53.580Z,12.45
2023-11-08T16:41:21.379Z,12.42
2023-11-08T16:43:48.142Z,12.40
2023-11-08T16:46:16.533Z,12.37
2023-11-08T16:48:44.403Z,12.35
2023-11-08T16:51:12.329Z,12.33
2023-11-08T16:53:38.930Z,12.32
2023-11-08T16:56:05.376Z,12.30
2023-11-08T16:58:31.935Z,12.28
2023-11-08T17:00:58.791Z,12.25
2023-11-08T17:03:25.663Z,12.23
2023-11-08T17:05:53.147Z,12.21
2023-11-08T17:08:20.032Z,12.20
2023-11-08T17:10:48.080Z,12.17
2023-11-08T17:13:14.577Z,12.14
2023-11-08T17:15:53.276Z,12.05
2023-11-08T17:18:21.106Z,12.07
2023-11-08T17:20:47.876Z,12.01
2023-11-08T17:23:14.530Z,11.96
2023-11-08T17:25:40.961Z,11.90
2023-11-08T17:28:07.456Z,11.85
2023-11-08T17:30:34.061Z,11.79
2023-11-08T17:33:00.893Z,11.72
2023-11-08T17:35:31.253Z,11.63
2023-11-08T17:37:58.248Z,11.56
2023-11-08T17:40:24.737Z,11.46
2023-11-08T17:42:51.289Z,11.37
2023-11-08T17:45:17.735Z,11.27
2023-11-08T17:47:44.880Z,11.21
2023-11-08T17:50:11.649Z,11.13
2023-11-08T17:52:38.060Z,11.06
2023-11-08T17:55:05.946Z,11.01
2023-11-08T17:57:32.432Z,10.98
2023-11-08T17:59:58.927Z,10.94
2023-11-08T18:02:25.361Z,10.93
2023-11-08T18:04:51.840Z,10.91
2023-11-08T18:07:18.770Z,10.88
2023-11-08T18:09:45.360Z,10.88
2023-11-08T18:12:16.515Z,10.86
2023-11-08T18:14:43.491Z,10.85
2023-11-08T18:17:12.759Z,10.82
2023-11-08T18:19:39.351Z,10.80
2023-11-08T18:22:05.916Z,10.78
2023-11-08T18:24:35.703Z,10.78
2023-11-08T18:27:02.525Z,10.77
2023-11-08T18:29:30.621Z,10.76
2023-11-08T18:31:57.157Z,10.77
2023-11-08T18:34:23.752Z,10.76
2023-11-08T18:36:51.271Z,10.77
2023-11-08T18:39:17.739Z,10.76
2023-11-08T18:41:44.279Z,10.74
2023-11-08T18:44:10.723Z,10.74
2023-11-08T18:46:37.375Z,10.71
2023-11-08T18:49:04.070Z,10.71
2023-11-08T18:51:30.968Z,10.68
2023-11-08T18:53:57.496Z,10.67
2023-11-08T18:56:24.039Z,10.66
2023-11-08T18:58:50.617Z,10.65
2023-11-08T19:01:19.588Z,10.66
2023-11-08T19:03:46.832Z,10.66
2023-11-08T19:06:13.335Z,10.67
2023-11-08T19:08:39.844Z,10.65
2023-11-08T19:11:10.070Z,10.64
2023-11-08T19:13:37.682Z,10.65
2023-11-08T19:16:05.570Z,10.64
2023-11-08T19:18:32.370Z,10.62
2023-11-08T19:20:59.960Z,10.60
2023-11-08T19:23:28.430Z,10.60
2023-11-08T19:25:57.940Z,10.58
2023-11-08T19:28:24.866Z,10.55
2023-11-08T19:30:51.847Z,10.55
2023-11-08T19:33:18.456Z,10.54
2023-11-08T19:35:45.604Z,10.54
2023-11-08T19:38:16.723Z,10.52
2023-11-08T19:40:43.637Z,10.53
2023-11-08T19:43:11.617Z,10.54
2023-11-08T19:45:38.308Z,10.54
2023-11-08T19:48:05.251Z,10.54
2023-11-08T19:50:32.596Z,10.54
2023-11-08T19:52:59.610Z,10.53
2023-11-08T19:55:29.674Z,10.55
2023-11-08T19:57:57.188Z,10.55
2023-11-08T20:00:23.770Z,10.55
2023-11-08T20:02:50.344Z,10.56
2023-11-08T20:05:17.121Z,10.58
2023-11-08T20:07:43.789Z,10.60
2023-11-08T20:10:10.947Z,10.61
2023-11-08T20:12:38.478Z,10.64
2023-11-08T20:15:06.559Z,10.66
2023-11-08T20:17:34.933Z,10.67
2023-11-08T20:20:02.560Z,10.71
2023-11-08T20:22:29.172Z,10.72
2023-11-08T20:24:55.748Z,10.73
2023-11-08T20:27:22.727Z,10.76
2023-11-08T20:29:49.430Z,10.79
2023-11-08T20:32:16.800Z,10.79
2023-11-08T20:34:43.898Z,10.81
2023-11-08T20:37:11.700Z,10.85
2023-11-08T20:39:38.189Z,10.87
2023-11-08T20:42:07.545Z,10.88
2023-11-08T20:44:34.816Z,10.90
2023-11-08T20:47:01.519Z,10.92
2023-11-08T20:49:28.380Z,10.93
2023-11-08T20:51:55.797Z,10.94
2023-11-08T20:54:25.916Z,10.97
2023-11-08T20:56:53.387Z,10.97
2023-11-08T20:59:20.458Z,10.99
2023-11-08T21:01:47.358Z,10.99
2023-11-08T21:04:14.178Z,11.02
2023-11-08T21:06:40.982Z,11.03
2023-11-08T21:09:10.813Z,11.06
2023-11-08T21:11:38.314Z,11.08
2023-11-08T21:14:06.734Z,11.10
2023-11-08T21:16:34.127Z,11.11
2023-11-08T21:19:02.789Z,11.13
2023-11-08T21:21:31.041Z,11.15
2023-11-08T21:23:58.037Z,11.16
2023-11-08T21:26:26.414Z,11.16
2023-11-08T21:28:53.902Z,11.18
2023-11-08T21:31:20.729Z,11.18
2023-11-08T21:33:47.387Z,11.17
2023-11-08T21:36:14.017Z,11.16
2023-11-08T21:38:44.176Z,11.16
2023-11-08T21:41:14.096Z,11.16
2023-11-08T21:43:42.065Z,11.16
2023-11-08T21:46:09.971Z,11.17
2023-11-08T21:48:37.247Z,11.19
2023-11-08T21:51:03.896Z,11.18
2023-11-08T21:53:32.948Z,11.17
2023-11-08T21:56:00.822Z,11.18
2023-11-08T21:58:27.732Z,11.18
2023-11-08T22:00:54.823Z,11.18
2023-11-08T22:03:23.158Z,11.19
2023-11-08T22:05:50.569Z,11.18
2023-11-08T22:08:20.239Z,11.18
2023-11-08T22:10:47.027Z,11.20
2023-11-08T22:13:15.735Z,11.20
2023-11-08T22:15:42.543Z,11.21
2023-11-08T22:18:09.597Z,11.21
2023-11-08T22:20:36.482Z,11.21
2023-11-08T22:23:04.529Z,11.22
2023-11-08T22:25:31.410Z,11.23
2023-11-08T22:28:00.047Z,11.25
2023-11-08T22:30:26.764Z,11.26
2023-11-08T22:32:53.333Z,11.27
2023-11-08T22:35:19.925Z,11.27
2023-11-08T22:37:46.466Z,11.29
2023-11-08T22:40:13.298Z,11.29
2023-11-08T22:42:39.800Z,11.30
2023-11-08T22:45:07.462Z,11.30
2023-11-08T22:47:34.013Z,11.32
2023-11-08T22:50:00.815Z,11.30
2023-11-08T22:52:27.338Z,11.31
2023-11-08T22:54:54.335Z,11.30
2023-11-08T22:57:22.710Z,11.30
2023-11-08T22:59:49.242Z,11.30
2023-11-08T23:02:16.159Z,11.31
2023-11-08T23:04:45.356Z,11.31
2023-11-08T23:07:12.238Z,11.33
2023-11-08T23:09:38.757Z,11.32
2023-11-08T23:12:05.630Z,11.33
2023-11-08T23:14:32.158Z,11.33
2023-11-08T23:16:59.198Z,11.34
2023-11-08T23:19:26.149Z,11.34
2023-11-08T23:21:52.745Z,11.34
2023-11-08T23:24:21.406Z,11.36
2023-11-08T23:26:48.424Z,11.37
2023-11-08T23:29:15.576Z,11.37
2023-11-08T23:31:42.036Z,11.38
2023-11-08T23:34:08.653Z,11.38
2023-11-08T23:36:35.196Z,11.38
2023-11-08T23:39:04.054Z,11.38
2023-11-08T23:41:30.601Z,11.38
2023-11-08T23:43:57.256Z,11.37
2023-11-08T23:46:23.994Z,11.36
2023-11-08T23:48:50.770Z,11.31
2023-11-08T23:51:17.822Z,11.31
2023-11-08T23:53:44.329Z,11.29
2023-11-08T23:56:14.789Z,11.29
2023-11-08T23:58:41.372Z,11.29
